Time;durP1;ratioP1;P1;durP2;ratioP2;P2;SDS_P1;SDS_P2;PMS_P1;PMS_P2;Temp;Humidity;BMP_temperature;BMP_pressure;BME280_temperature;BME280_humidity;BME280_pressure;Samples;Min_cycle;Max_cycle;Signal;HPM_P1;HPM_P2
2021/10/30 00:00:51;;;;;;;10.95;7.18;;;13.60;99.90;;;;;;5009105;28;39934;-75
2021/10/30 00:03:18;;;;;;;11.57;6.93;;;13.60;99.90;;;;;;5009335;28;37578;-75
2021/10/30 00:05:45;;;;;;;12.23;7.22;;;13.60;99.90;;;;;;5014329;28;40044;-75
2021/10/30 00:08:12;;;;;;;11.32;7.25;;;13.60;99.90;;;;;;5035400;28;40002;-75
2021/10/30 00:10:38;;;;;;;9.60;7.43;;;13.60;99.90;;;;;;5010874;28;39926;-76
2021/10/30 00:13:04;;;;;;;13.15;7.28;;;13.70;99.90;;;;;;5016707;28;38169;-76
2021/10/30 00:15:31;;;;;;;8.70;6.60;;;13.70;99.90;;;;;;5009323;28;39613;-75
2021/10/30 00:17:57;;;;;;;10.02;6.63;;;13.70;99.90;;;;;;5012164;28;39651;-75
2021/10/30 00:20:23;;;;;;;10.93;6.85;;;13.70;99.90;;;;;;5014356;28;38781;-75
2021/10/30 00:22:49;;;;;;;10.20;6.60;;;13.70;99.90;;;;;;5020630;28;37376;-75
2021/10/30 00:25:17;;;;;;;12.27;6.75;;;13.70;99.90;;;;;;5014722;28;40609;-75
2021/10/30 00:27:43;;;;;;;12.73;6.97;;;13.70;99.90;;;;;;5012003;28;38448;-75
2021/10/30 00:30:10;;;;;;;10.52;6.00;;;13.70;99.90;;;;;;5018990;28;38193;-75
2021/10/30 00:32:37;;;;;;;11.63;6.20;;;13.70;99.90;;;;;;5012117;28;38101;-75
2021/10/30 00:35:04;;;;;;;7.95;5.95;;;13.70;99.90;;;;;;5018914;28;39030;-75
2021/10/30 00:37:30;;;;;;;9.75;6.43;;;13.60;99.90;;;;;;5019449;28;48420;-75
2021/10/30 00:39:57;;;;;;;12.75;6.60;;;13.70;99.90;;;;;;5008347;28;39167;-75
2021/10/30 00:42:23;;;;;;;9.93;7.45;;;13.70;99.90;;;;;;5018121;28;36938;-75
2021/10/30 00:44:49;;;;;;;11.73;7.68;;;13.60;99.90;;;;;;5016215;28;40522;-74
2021/10/30 00:47:15;;;;;;;12.98;8.18;;;13.70;99.90;;;;;;5013676;28;38845;-75
2021/10/30 00:49:45;;;;;;;13.15;8.35;;;13.70;99.90;;;;;;5010109;28;37430;-75
2021/10/30 00:52:13;;;;;;;13.32;8.90;;;13.60;99.90;;;;;;5009167;28;36280;-75
2021/10/30 00:54:42;;;;;;;16.65;9.23;;;13.60;99.90;;;;;;5013916;28;37359;-75
2021/10/30 00:57:09;;;;;;;15.30;8.80;;;13.60;99.90;;;;;;5009643;28;38820;-75
2021/10/30 00:59:36;;;;;;;12.70;9.07;;;13.50;99.90;;;;;;5012002;28;41443;-75
2021/10/30 01:02:02;;;;;;;11.40;8.60;;;13.50;99.90;;;;;;5003199;28;36194;-75
2021/10/30 01:04:30;;;;;;;12.85;8.77;;;13.40;99.90;;;;;;5011206;28;39174;-75
2021/10/30 01:06:58;;;;;;;15.32;8.93;;;13.40;99.90;;;;;;5010767;28;39058;-75
2021/10/30 01:09:24;;;;;;;13.23;8.43;;;13.30;99.90;;;;;;5005305;28;38929;-75
2021/10/30 01:11:52;;;;;;;11.57;8.95;;;13.20;99.90;;;;;;5016681;28;37636;-75
2021/10/30 01:14:22;;;;;;;11.95;8.38;;;13.20;99.90;;;;;;5023130;28;38528;-75
2021/10/30 01:16:59;;;;;;;9.30;6.97;;;13.20;99.90;;;;;;5035969;28;38857;-75
2021/10/30 01:19:27;;;;;;;11.18;7.40;;;13.10;99.90;;;;;;5016456;28;38594;-75
2021/10/30 01:21:53;;;;;;;9.38;7.05;;;13.10;99.90;;;;;;5033185;28;36798;-75
2021/10/30 01:24:21;;;;;;;8.10;7.25;;;13.10;99.90;;;;;;5007338;28;40578;-75
2021/10/30 01:26:47;;;;;;;9.48;6.65;;;13.00;99.90;;;;;;5014766;28;38533;-75
2021/10/30 01:29:14;;;;;;;11.60;6.93;;;12.90;99.90;;;;;;5001925;28;40101;-75
2021/10/30 01:31:40;;;;;;;8.73;6.70;;;12.80;99.90;;;;;;5029107;28;38113;-75
2021/10/30 01:34:08;;;;;;;9.20;6.97;;;12.70;99.90;;;;;;5033255;28;40389;-76
2021/10/30 01:36:35;;;;;;;10.20;6.72;;;12.70;99.90;;;;;;5011085;28;40722;-75
2021/10/30 01:39:06;;;;;;;10.65;6.80;;;12.60;99.90;;;;;;5016156;28;37401;-75
2021/10/30 01:41:33;;;;;;;14.45;8.48;;;12.50;99.90;;;;;;5005598;28;48124;-75
2021/10/30 01:44:00;;;;;;;14.15;9.60;;;12.40;99.90;;;;;;5030908;28;38423;-75
2021/10/30 01:46:26;;;;;;;11.50;9.60;;;12.40;99.90;;;;;;5012888;28;39217;-74
2021/10/30 01:48:53;;;;;;;15.32;10.90;;;12.40;99.90;;;;;;5014223;28;40492;-75
2021/10/30 01:51:21;;;;;;;15.05;10.38;;;12.30;99.90;;;;;;5000726;28;38194;-75
2021/10/30 01:53:47;;;;;;;17.38;11.48;;;12.40;99.90;;;;;;5027172;28;38528;-75
2021/10/30 01:56:14;;;;;;;16.83;11.95;;;12.30;99.90;;;;;;5026173;28;38572;-75
2021/10/30 01:58:41;;;;;;;13.38;11.45;;;12.20;99.90;;;;;;5027956;28;38417;-74
2021/10/30 02:01:08;;;;;;;17.73;12.23;;;12.30;99.90;;;;;;5005721;28;37492;-75
2021/10/30 02:03:35;;;;;;;16.63;12.73;;;12.20;99.90;;;;;;5005517;28;38614;-75
2021/10/30 02:06:03;;;;;;;17.98;13.68;;;12.20;99.90;;;;;;5022494;28;37588;-76
2021/10/30 02:08:30;;;;;;;23.48;14.45;;;12.30;99.90;;;;;;5025250;28;38414;-75
2021/10/30 02:10:57;;;;;;;18.98;13.25;;;12.30;99.90;;;;;;5026592;28;38492;-75
2021/10/30 02:13:23;;;;;;;20.08;14.30;;;12.30;99.90;;;;;;5032029;28;38745;-74
2021/10/30 02:15:50;;;;;;;15.88;13.35;;;12.30;99.90;;;;;;5029857;28;39500;-74
2021/10/30 02:18:17;;;;;;;15.00;11.85;;;12.30;99.90;;;;;;5006128;28;40317;-74
2021/10/30 02:20:44;;;;;;;16.98;13.32;;;12.40;99.90;;;;;;5020605;28;37575;-74
2021/10/30 02:23:11;;;;;;;20.60;12.93;;;12.30;99.90;;;;;;5024965;28;38943;-74
2021/10/30 02:25:37;;;;;;;19.10;12.55;;;12.30;99.90;;;;;;5028313;28;39075;-74
2021/10/30 02:28:03;;;;;;;18.33;12.77;;;12.30;99.90;;;;;;5028235;28;38102;-75
2021/10/30 02:30:29;;;;;;;17.17;12.10;;;12.30;99.90;;;;;;5007275;28;38432;-74
2021/10/30 02:32:55;;;;;;;16.58;12.32;;;12.30;99.90;;;;;;5015819;28;39595;-74
2021/10/30 02:35:22;;;;;;;17.27;12.98;;;12.30;99.90;;;;;;5000247;28;39872;-74
2021/10/30 02:37:49;;;;;;;16.52;12.93;;;12.40;99.90;;;;;;5013790;28;38979;-74
2021/10/30 02:40:15;;;;;;;15.52;11.40;;;12.40;99.90;;;;;;5016042;28;38191;-74
2021/10/30 02:42:41;;;;;;;15.55;13.00;;;12.50;99.90;;;;;;5019067;28;39877;-74
2021/10/30 02:45:09;;;;;;;13.77;12.27;;;12.50;99.90;;;;;;5016057;28;40610;-74
2021/10/30 02:47:35;;;;;;;15.63;11.68;;;12.50;99.90;;;;;;5014627;28;37554;-74
2021/10/30 02:50:01;;;;;;;14.68;11.90;;;12.60;99.90;;;;;;4991819;28;39254;-76
2021/10/30 02:52:28;;;;;;;14.52;12.07;;;12.60;99.90;;;;;;5000717;28;40576;-74
2021/10/30 02:54:54;;;;;;;14.00;11.18;;;12.60;99.90;;;;;;5026977;28;39538;-74
2021/10/30 02:57:20;;;;;;;15.90;12.25;;;12.60;99.90;;;;;;5031148;28;38290;-74
2021/10/30 02:59:46;;;;;;;15.52;11.13;;;12.70;99.90;;;;;;5030138;28;36375;-74
2021/10/30 03:02:13;;;;;;;16.23;13.05;;;12.60;99.90;;;;;;5035394;28;39383;-74
2021/10/30 03:04:39;;;;;;;15.55;11.65;;;12.70;99.90;;;;;;5030863;28;38470;-74
2021/10/30 03:07:05;;;;;;;14.73;11.68;;;12.70;99.90;;;;;;5024943;28;38587;-73
2021/10/30 03:09:31;;;;;;;16.88;12.02;;;12.70;99.90;;;;;;5031376;28;37013;-75
2021/10/30 03:11:57;;;;;;;12.27;11.05;;;12.70;99.90;;;;;;5026490;28;40222;-74
2021/10/30 03:14:23;;;;;;;15.00;11.35;;;12.70;99.90;;;;;;5011938;28;39076;-74
2021/10/30 03:16:49;;;;;;;17.17;12.20;;;12.70;99.90;;;;;;5009321;28;37379;-74
2021/10/30 03:19:16;;;;;;;18.88;12.93;;;12.60;99.90;;;;;;5005719;28;39042;-74
2021/10/30 03:21:42;;;;;;;16.77;12.10;;;12.60;99.90;;;;;;5030107;28;39183;-74
2021/10/30 03:24:08;;;;;;;14.45;11.95;;;12.50;99.90;;;;;;5029016;28;39647;-75
2021/10/30 03:26:35;;;;;;;15.57;12.75;;;12.50;99.90;;;;;;5030516;28;38557;-74
2021/10/30 03:29:02;;;;;;;15.20;12.45;;;12.50;99.90;;;;;;5013154;28;37880;-75
2021/10/30 03:31:28;;;;;;;16.27;11.82;;;12.50;99.90;;;;;;5013525;28;37862;-75
2021/10/30 03:33:54;;;;;;;15.15;12.80;;;12.50;99.90;;;;;;5037971;28;39440;-75
2021/10/30 03:36:20;;;;;;;20.48;14.23;;;12.50;99.90;;;;;;5033845;28;39154;-73
2021/10/30 03:38:46;;;;;;;13.88;12.27;;;12.50;99.90;;;;;;5015039;28;38202;-74
2021/10/30 03:41:13;;;;;;;19.10;12.30;;;12.50;99.90;;;;;;5029992;28;38921;-74
2021/10/30 03:43:39;;;;;;;16.05;13.00;;;12.40;99.90;;;;;;5037729;28;38645;-74
2021/10/30 03:46:05;;;;;;;17.52;12.85;;;12.40;99.90;;;;;;5005143;28;38834;-75
2021/10/30 03:48:31;;;;;;;15.57;12.40;;;12.40;99.90;;;;;;5037425;28;39236;-74
2021/10/30 03:50:58;;;;;;;15.65;12.70;;;12.40;99.90;;;;;;5011951;28;39933;-74
2021/10/30 03:53:24;;;;;;;16.08;12.95;;;12.40;99.90;;;;;;5017477;28;37694;-75
2021/10/30 03:55:50;;;;;;;15.25;12.50;;;12.40;99.90;;;;;;5028813;28;38445;-74
2021/10/30 03:58:16;;;;;;;15.75;11.85;;;12.40;99.90;;;;;;5025541;28;39151;-74
2021/10/30 04:00:44;;;;;;;14.45;11.80;;;12.40;99.90;;;;;;5013131;28;39447;-74
2021/10/30 04:03:11;;;;;;;13.85;11.45;;;12.40;99.90;;;;;;5030968;28;38301;-75
2021/10/30 04:05:39;;;;;;;17.15;12.18;;;12.40;99.90;;;;;;5028726;28;38616;-74
2021/10/30 04:08:07;;;;;;;14.55;11.82;;;12.40;99.90;;;;;;5018046;28;38245;-74
2021/10/30 04:10:34;;;;;;;15.68;12.63;;;12.40;99.90;;;;;;5007588;28;37881;-74
2021/10/30 04:13:01;;;;;;;15.85;13.10;;;12.50;99.90;;;;;;5015265;28;39049;-75
2021/10/30 04:15:27;;;;;;;19.40;13.93;;;12.40;99.90;;;;;;5009119;28;47517;-74
2021/10/30 04:17:53;;;;;;;17.58;14.02;;;12.40;99.90;;;;;;5008604;28;37973;-75
2021/10/30 04:20:19;;;;;;;15.45;12.80;;;12.40;99.90;;;;;;5009650;28;39515;-74
2021/10/30 04:22:45;;;;;;;18.17;13.00;;;12.40;99.90;;;;;;5006539;28;39061;-75
2021/10/30 04:25:12;;;;;;;15.05;11.88;;;12.40;99.90;;;;;;5013754;28;39598;-75
2021/10/30 04:27:38;;;;;;;17.15;12.68;;;12.40;99.90;;;;;;5018593;28;38252;-75
2021/10/30 04:30:05;;;;;;;15.93;12.68;;;12.40;99.90;;;;;;5013780;28;39152;-76
2021/10/30 04:32:31;;;;;;;20.55;14.38;;;12.40;99.90;;;;;;5018825;28;39152;-76
2021/10/30 04:35:06;;;;;;;19.23;14.75;;;12.40;99.90;;;;;;5036010;28;38556;-75
2021/10/30 04:37:32;;;;;;;19.65;13.68;;;12.40;99.90;;;;;;5011109;28;47197;-76
2021/10/30 04:39:59;;;;;;;16.35;12.95;;;12.40;99.90;;;;;;5025410;28;39645;-76
2021/10/30 04:42:25;;;;;;;16.48;12.98;;;12.40;99.90;;;;;;5025531;28;39561;-76
2021/10/30 04:44:51;;;;;;;16.13;13.60;;;12.40;99.90;;;;;;5006510;28;40349;-76
2021/10/30 04:47:18;;;;;;;20.00;13.65;;;12.40;99.90;;;;;;5026338;28;37534;-76
2021/10/30 04:49:46;;;;;;;18.98;13.63;;;12.50;99.90;;;;;;5006433;28;37828;-76
2021/10/30 04:52:13;;;;;;;21.38;15.60;;;12.50;99.90;;;;;;4996762;28;39554;-75
2021/10/30 04:54:39;;;;;;;20.10;15.20;;;12.50;99.90;;;;;;5002699;28;39148;-75
2021/10/30 04:57:05;;;;;;;18.50;13.60;;;12.50;99.90;;;;;;5028417;28;40189;-76
2021/10/30 04:59:32;;;;;;;17.70;13.77;;;12.50;99.90;;;;;;5010698;28;39792;-76
2021/10/30 05:01:58;;;;;;;18.08;14.50;;;12.60;99.90;;;;;;5013791;28;40578;-76
2021/10/30 05:04:24;;;;;;;18.48;15.50;;;12.60;99.90;;;;;;5025433;28;38540;-76
2021/10/30 05:06:51;;;;;;;21.27;16.42;;;12.60;99.90;;;;;;5022120;28;38294;-76
2021/10/30 05:09:17;;;;;;;19.35;15.32;;;12.60;99.90;;;;;;5005274;28;39799;-76
2021/10/30 05:11:43;;;;;;;24.23;17.30;;;12.70;99.90;;;;;;5032771;28;39449;-75
2021/10/30 05:14:09;;;;;;;22.08;15.60;;;12.70;99.90;;;;;;5007569;28;38674;-76
2021/10/30 05:16:35;;;;;;;20.65;16.98;;;12.60;99.90;;;;;;5008493;28;38056;-76
2021/10/30 05:19:01;;;;;;;25.88;18.13;;;12.70;99.90;;;;;;5032620;28;38790;-76
2021/10/30 05:21:28;;;;;;;23.58;17.73;;;12.70;99.90;;;;;;5031316;28;40362;-76
2021/10/30 05:23:56;;;;;;;26.83;17.92;;;12.70;99.90;;;;;;5016869;28;40154;-75
2021/10/30 05:26:22;;;;;;;24.52;16.30;;;12.70;99.90;;;;;;5012122;28;38524;-76
2021/10/30 05:28:48;;;;;;;23.55;17.85;;;12.80;99.90;;;;;;5030521;28;39490;-76
2021/10/30 05:31:14;;;;;;;23.77;18.23;;;12.80;99.90;;;;;;5026870;28;38605;-76
2021/10/30 05:33:40;;;;;;;24.20;16.75;;;12.90;99.90;;;;;;5009918;28;37544;-76
2021/10/30 05:36:09;;;;;;;22.67;16.98;;;12.90;99.90;;;;;;5012771;28;39129;-76
2021/10/30 05:38:37;;;;;;;24.33;17.38;;;12.90;99.90;;;;;;5012318;28;38913;-75
2021/10/30 05:41:04;;;;;;;22.35;16.17;;;12.90;99.90;;;;;;5007291;28;38793;-76
2021/10/30 05:43:30;;;;;;;21.88;17.65;;;12.90;99.90;;;;;;5011773;28;38171;-76
2021/10/30 05:45:56;;;;;;;22.48;15.80;;;12.90;99.90;;;;;;5009886;28;38993;-76
2021/10/30 05:48:22;;;;;;;24.00;15.80;;;12.90;99.90;;;;;;5028233;28;39640;-75
2021/10/30 05:50:48;;;;;;;21.90;16.77;;;13.00;99.90;;;;;;4999504;28;39745;-75
2021/10/30 05:53:15;;;;;;;23.60;16.38;;;13.00;99.90;;;;;;5009685;28;37815;-75
2021/10/30 05:55:41;;;;;;;21.85;16.52;;;13.00;99.90;;;;;;5009618;28;37800;-75
2021/10/30 05:58:07;;;;;;;23.13;16.00;;;12.90;99.90;;;;;;5025830;28;39921;-76
2021/10/30 06:00:33;;;;;;;22.17;15.50;;;12.90;99.90;;;;;;5011511;28;39976;-76
2021/10/30 06:02:59;;;;;;;22.48;14.02;;;12.90;99.90;;;;;;5000598;28;38699;-76
2021/10/30 06:05:26;;;;;;;23.27;15.82;;;13.00;99.90;;;;;;5006994;28;38784;-75
2021/10/30 06:07:53;;;;;;;25.50;16.88;;;13.00;99.90;;;;;;5029860;28;39613;-76
2021/10/30 06:10:19;;;;;;;21.40;15.85;;;13.00;99.90;;;;;;5023084;28;42652;-76
2021/10/30 06:12:46;;;;;;;23.10;15.30;;;13.00;99.90;;;;;;5031489;28;39425;-76
2021/10/30 06:15:12;;;;;;;18.60;13.63;;;13.00;99.90;;;;;;5014108;28;38944;-76
2021/10/30 06:17:38;;;;;;;21.15;14.52;;;13.10;99.90;;;;;;5032564;28;38435;-76
2021/10/30 06:20:04;;;;;;;20.92;13.95;;;13.00;99.90;;;;;;5013241;28;40194;-77
2021/10/30 06:22:30;;;;;;;20.88;14.32;;;13.10;99.90;;;;;;5019516;28;48521;-75
2021/10/30 06:24:57;;;;;;;25.70;15.73;;;13.10;99.90;;;;;;5027901;28;36494;-76
2021/10/30 06:27:23;;;;;;;17.52;14.55;;;13.10;99.90;;;;;;5027365;28;38104;-76
2021/10/30 06:29:49;;;;;;;22.25;15.73;;;13.10;99.90;;;;;;5012663;28;39767;-76
2021/10/30 06:32:15;;;;;;;19.65;14.45;;;13.10;99.90;;;;;;5007437;28;38031;-77
2021/10/30 06:34:41;;;;;;;19.02;13.23;;;13.20;99.90;;;;;;5008030;28;38305;-77
2021/10/30 06:37:07;;;;;;;18.08;13.85;;;13.20;99.90;;;;;;5009009;28;37904;-76
2021/10/30 06:39:34;;;;;;;18.85;12.52;;;13.20;99.90;;;;;;5008919;28;39203;-76
2021/10/30 06:42:00;;;;;;;16.27;12.27;;;13.20;99.90;;;;;;5028398;28;38658;-77
2021/10/30 06:44:27;;;;;;;18.75;12.38;;;13.20;99.90;;;;;;5008314;28;38789;-77
2021/10/30 06:46:54;;;;;;;14.95;12.45;;;13.20;99.90;;;;;;5009750;28;40637;-77
2021/10/30 06:49:24;;;;;;;18.85;13.27;;;13.20;99.90;;;;;;5008531;28;39681;-77
2021/10/30 06:51:51;;;;;;;16.77;12.77;;;13.20;99.90;;;;;;5027143;28;38097;-76
2021/10/30 06:54:17;;;;;;;15.90;12.52;;;13.20;99.90;;;;;;5024256;28;37342;-77
2021/10/30 06:56:44;;;;;;;14.40;11.68;;;13.20;99.90;;;;;;5014279;28;38835;-77
2021/10/30 06:59:10;;;;;;;15.25;12.13;;;13.20;99.90;;;;;;5028060;28;39329;-78
2021/10/30 07:01:36;;;;;;;19.70;12.32;;;13.30;99.90;;;;;;5010677;28;38983;-77
2021/10/30 07:04:04;;;;;;;17.85;12.10;;;13.20;99.90;;;;;;5008198;28;39313;-77
2021/10/30 07:06:30;;;;;;;19.02;12.77;;;13.20;99.90;;;;;;5014895;28;38369;-77
2021/10/30 07:08:56;;;;;;;14.55;12.02;;;13.30;99.90;;;;;;5012369;28;39749;-76
2021/10/30 07:11:23;;;;;;;18.23;11.60;;;13.30;99.90;;;;;;5014922;28;37101;-76
2021/10/30 07:13:50;;;;;;;16.05;11.65;;;13.20;99.90;;;;;;5012438;28;38262;-77
2021/10/30 07:16:16;;;;;;;18.73;12.82;;;13.20;99.90;;;;;;5008952;28;39538;-77
2021/10/30 07:18:43;;;;;;;14.70;11.25;;;13.20;99.90;;;;;;5014845;28;40126;-77
2021/10/30 07:21:10;;;;;;;16.35;12.23;;;13.20;99.90;;;;;;5007950;28;39565;-76
2021/10/30 07:23:36;;;;;;;17.35;11.48;;;13.30;99.90;;;;;;5030976;28;37735;-76
2021/10/30 07:26:03;;;;;;;14.15;11.15;;;13.20;99.90;;;;;;5009003;28;38448;-77
2021/10/30 07:28:29;;;;;;;14.75;11.70;;;13.20;99.90;;;;;;5018295;28;39645;-76
2021/10/30 07:30:55;;;;;;;17.55;11.55;;;13.20;99.90;;;;;;5034235;28;39300;-77
2021/10/30 07:33:21;;;;;;;14.10;10.50;;;13.30;99.90;;;;;;5009666;28;37912;-76
2021/10/30 07:35:48;;;;;;;14.82;10.93;;;13.30;99.90;;;;;;5035393;28;39016;-76
2021/10/30 07:38:15;;;;;;;11.90;10.07;;;13.30;99.90;;;;;;5020130;28;39546;-76
2021/10/30 07:40:41;;;;;;;13.90;10.88;;;13.30;99.90;;;;;;5013313;28;40127;-76
2021/10/30 07:43:08;;;;;;;12.95;9.27;;;13.30;99.90;;;;;;5029316;28;37361;-76
2021/10/30 07:45:34;;;;;;;9.98;8.60;;;13.30;99.90;;;;;;5021398;28;39015;-75
2021/10/30 07:48:01;;;;;;;13.35;10.27;;;13.40;99.90;;;;;;5025955;28;38795;-77
2021/10/30 07:50:30;;;;;;;14.52;10.07;;;13.40;99.90;;;;;;5009546;28;47118;-76
2021/10/30 07:53:01;;;;;;;15.05;10.02;;;13.40;99.90;;;;;;5035065;28;38367;-77
2021/10/30 07:55:28;;;;;;;15.40;10.52;;;13.40;99.90;;;;;;5006199;28;40181;-76
2021/10/30 07:57:54;;;;;;;13.70;10.18;;;13.40;99.90;;;;;;5018669;28;39966;-76
2021/10/30 08:00:20;;;;;;;13.73;10.07;;;13.40;99.90;;;;;;5009366;28;39271;-74
2021/10/30 08:02:48;;;;;;;10.80;8.63;;;13.40;99.90;;;;;;5032837;28;35881;-76
2021/10/30 08:05:14;;;;;;;11.77;8.98;;;13.40;99.90;;;;;;5033845;28;38618;-75
2021/10/30 08:07:44;;;;;;;14.18;9.48;;;13.50;99.90;;;;;;5010318;28;42735;-75
2021/10/30 08:10:11;;;;;;;13.65;8.55;;;13.50;99.90;;;;;;5017770;28;38485;-76
2021/10/30 08:12:38;;;;;;;9.90;7.53;;;13.50;99.90;;;;;;5012506;28;38168;-79
2021/10/30 08:15:05;;;;;;;9.40;7.18;;;13.50;99.90;;;;;;5015808;28;39621;-77
2021/10/30 08:17:31;;;;;;;11.07;7.07;;;13.60;99.90;;;;;;5006853;28;46451;-76
2021/10/30 08:19:59;;;;;;;9.25;6.95;;;13.60;99.90;;;;;;5012726;28;39459;-77
2021/10/30 08:22:25;;;;;;;9.20;6.88;;;13.70;99.90;;;;;;5012119;28;38815;-76
2021/10/30 08:24:51;;;;;;;8.57;6.03;;;13.70;99.90;;;;;;5033371;28;39845;-76
2021/10/30 08:27:17;;;;;;;8.90;6.30;;;13.70;99.90;;;;;;5018851;28;39705;-78
2021/10/30 08:29:45;;;;;;;8.90;6.57;;;13.70;99.90;;;;;;5016486;28;40433;-77
2021/10/30 08:32:12;;;;;;;8.63;6.25;;;13.70;99.90;;;;;;5002304;28;37240;-77
2021/10/30 08:34:38;;;;;;;12.93;6.70;;;13.80;99.90;;;;;;5014278;28;37693;-76
2021/10/30 08:37:05;;;;;;;9.73;7.15;;;13.80;99.90;;;;;;5012935;28;37527;-79
2021/10/30 08:39:32;;;;;;;7.90;6.70;;;13.70;99.90;;;;;;5019021;28;37483;-78
2021/10/30 08:41:58;;;;;;;10.18;7.07;;;13.70;99.90;;;;;;5019860;28;40104;-78
2021/10/30 08:44:24;;;;;;;12.82;7.25;;;13.70;99.90;;;;;;5022868;28;39495;-77
2021/10/30 08:46:51;;;;;;;15.15;7.47;;;13.70;99.90;;;;;;5028890;28;41576;-77
2021/10/30 08:49:19;;;;;;;10.50;7.28;;;13.70;99.90;;;;;;5005063;28;38500;-78
2021/10/30 08:51:45;;;;;;;10.45;8.40;;;13.60;99.90;;;;;;5010510;28;38411;-76
2021/10/30 08:54:12;;;;;;;13.68;8.30;;;13.60;99.90;;;;;;5021432;28;38181;-77
2021/10/30 08:56:48;;;;;;;12.77;7.65;;;13.60;99.90;;;;;;5146423;27;20434;-78
2021/10/30 08:59:14;;;;;;;10.82;8.00;;;13.60;99.90;;;;;;5139543;27;37177;-75
2021/10/30 09:01:51;;;;;;;15.10;8.40;;;13.60;99.90;;;;;;5154488;27;36565;-75
2021/10/30 09:04:18;;;;;;;12.40;7.88;;;13.60;99.90;;;;;;5158356;27;39691;-75
2021/10/30 09:06:57;;;;;;;11.20;8.48;;;13.60;99.90;;;;;;5155142;27;36879;-78
2021/10/30 09:09:24;;;;;;;13.50;8.75;;;13.60;99.90;;;;;;5155165;27;37973;-78
2021/10/30 09:12:03;;;;;;;15.77;8.02;;;13.60;99.90;;;;;;5183788;27;36036;-78
2021/10/30 09:14:31;;;;;;;11.90;7.95;;;13.60;99.90;;;;;;5134319;27;46887;-77
2021/10/30 09:17:19;;;;;;;10.00;8.13;;;13.60;99.90;;;;;;5161031;27;39266;-78
2021/10/30 09:19:54;;;;;;;10.88;8.88;;;13.60;99.90;;;;;;5151339;27;47036;-76
2021/10/30 09:22:23;;;;;;;10.43;8.27;;;13.60;99.90;;;;;;5150106;27;35094;-78
2021/10/30 09:25:01;;;;;;;14.88;8.20;;;13.70;99.90;;;;;;5154381;27;37975;-76
2021/10/30 09:28:02;;;;;;;11.25;7.60;;;13.70;99.90;;;;;;5145979;27;37329;-76
2021/10/30 09:30:36;;;;;;;13.23;8.63;;;13.70;99.90;;;;;;5146723;27;48777;-77
2021/10/30 09:33:05;;;;;;;10.65;7.55;;;13.70;99.90;;;;;;5153237;27;38350;-75
2021/10/30 09:35:50;;;;;;;10.57;7.97;;;13.70;99.90;;;;;;5151332;27;38592;-76
2021/10/30 09:38:34;;;;;;;10.27;7.85;;;13.70;99.90;;;;;;5150399;27;37766;-76
2021/10/30 09:41:22;;;;;;;10.73;7.53;;;13.80;99.90;;;;;;5149233;27;37682;-76
2021/10/30 09:44:15;;;;;;;9.85;7.30;;;13.80;99.90;;;;;;5148283;27;47258;-76
2021/10/30 09:46:44;;;;;;;9.80;7.15;;;13.80;99.90;;;;;;5153744;27;48787;-77
2021/10/30 09:49:35;;;;;;;12.50;8.18;;;13.80;99.90;;;;;;5149078;27;38214;-76
2021/10/30 09:52:04;;;;;;;9.80;7.35;;;13.90;99.90;;;;;;5152570;27;37694;-76
2021/10/30 09:54:41;;;;;;;9.23;6.82;;;13.80;99.90;;;;;;5150650;27;48264;-77
2021/10/30 09:57:11;;;;;;;7.97;7.05;;;13.90;99.90;;;;;;5158032;27;39835;-76
2021/10/30 09:59:41;;;;;;;8.90;6.72;;;13.90;99.90;;;;;;5152385;27;37707;-77
2021/10/30 10:02:08;;;;;;;11.93;5.95;;;14.00;99.90;;;;;;5152703;27;38274;-77
2021/10/30 10:04:41;;;;;;;7.15;6.00;;;14.00;99.90;;;;;;5154024;27;38008;-78
2021/10/30 10:07:08;;;;;;;7.93;6.25;;;14.00;99.90;;;;;;5139160;27;39634;-77
2021/10/30 10:09:35;;;;;;;9.10;6.30;;;14.00;99.90;;;;;;5130635;27;39049;-76
2021/10/30 10:12:01;;;;;;;10.05;6.65;;;14.10;99.90;;;;;;5136153;27;37289;-77
2021/10/30 10:14:28;;;;;;;10.25;6.07;;;14.00;99.90;;;;;;5133829;27;47400;-75
2021/10/30 10:16:56;;;;;;;8.25;6.45;;;14.00;99.90;;;;;;5141095;27;38375;-78
2021/10/30 10:19:23;;;;;;;10.10;6.00;;;14.10;99.90;;;;;;5153803;27;37464;-75
2021/10/30 10:21:51;;;;;;;7.43;6.22;;;14.10;99.90;;;;;;5144490;27;37771;-76
2021/10/30 10:24:30;;;;;;;6.60;5.95;;;14.20;99.90;;;;;;5136933;27;38102;-77
2021/10/30 10:26:58;;;;;;;7.03;6.32;;;14.10;99.90;;;;;;5145107;27;37883;-76
2021/10/30 10:29:36;;;;;;;8.23;5.45;;;14.10;99.90;;;;;;5144553;27;38617;-77
2021/10/30 10:32:16;;;;;;;6.93;5.03;;;14.20;99.90;;;;;;5142484;27;36554;-77
2021/10/30 10:34:42;;;;;;;10.75;6.32;;;14.20;99.90;;;;;;5125349;27;37508;-76
2021/10/30 10:37:11;;;;;;;9.02;5.47;;;14.20;99.90;;;;;;5120073;27;39539;-77
2021/10/30 10:39:42;;;;;;;8.75;5.80;;;14.30;99.90;;;;;;5118682;27;38214;-76
2021/10/30 10:42:10;;;;;;;6.40;5.18;;;14.30;99.90;;;;;;5119208;27;39405;-76
2021/10/30 10:44:42;;;;;;;8.73;5.93;;;14.30;99.90;;;;;;5131664;27;38010;-75
2021/10/30 10:47:49;;;;;;;8.70;5.53;;;14.30;99.90;;;;;;5137128;27;39719;-74
2021/10/30 10:50:24;;;;;;;6.28;4.82;;;14.30;99.90;;;;;;5133418;27;39068;-77
2021/10/30 10:53:00;;;;;;;6.95;5.35;;;14.30;99.90;;;;;;5137772;27;37545;-76
2021/10/30 10:55:29;;;;;;;7.03;5.57;;;14.40;99.90;;;;;;5137079;27;37389;-77
2021/10/30 10:58:10;;;;;;;5.25;4.75;;;14.40;99.90;;;;;;5159672;27;37811;-76
2021/10/30 11:00:36;;;;;;;7.97;5.70;;;14.40;99.90;;;;;;5137848;27;49061;-75
2021/10/30 11:03:03;;;;;;;7.97;5.95;;;14.40;99.90;;;;;;5134509;27;38394;-75
2021/10/30 11:05:34;;;;;;;10.32;5.22;;;14.40;99.90;;;;;;5140652;27;38229;-78
2021/10/30 11:08:28;;;;;;;6.07;5.10;;;14.40;99.90;;;;;;5136384;27;37833;-77
2021/10/30 11:11:27;;;;;;;7.10;5.05;;;14.40;99.90;;;;;;5137095;27;47238;-74
2021/10/30 11:14:00;;;;;;;5.78;4.88;;;14.40;99.90;;;;;;5109683;27;48734;-80
2021/10/30 11:16:30;;;;;;;7.13;5.40;;;14.40;99.90;;;;;;5142271;27;37044;-77
2021/10/30 11:19:13;;;;;;;6.40;5.20;;;14.40;99.90;;;;;;5139532;27;38883;-76
2021/10/30 11:21:45;;;;;;;5.65;5.03;;;14.40;99.90;;;;;;5138510;27;47191;-77
2021/10/30 11:24:30;;;;;;;6.68;5.28;;;14.40;99.90;;;;;;5122708;27;37611;-78
2021/10/30 11:26:58;;;;;;;8.05;5.80;;;14.40;99.90;;;;;;5115618;27;37809;-78
2021/10/30 11:29:26;;;;;;;5.68;5.07;;;14.40;99.90;;;;;;5115586;27;37706;-75
2021/10/30 11:31:55;;;;;;;5.55;5.03;;;14.50;99.90;;;;;;5130064;27;38633;-78
2021/10/30 11:34:22;;;;;;;9.00;5.60;;;14.50;99.90;;;;;;5135483;27;37631;-77
2021/10/30 11:36:48;;;;;;;5.40;4.90;;;14.50;99.90;;;;;;5131581;27;38275;-80
2021/10/30 11:39:15;;;;;;;7.47;5.07;;;14.60;99.90;;;;;;5132169;27;39535;-77
2021/10/30 11:41:43;;;;;;;5.32;4.82;;;14.60;99.90;;;;;;5127520;27;38596;-76
2021/10/30 11:44:12;;;;;;;5.28;4.65;;;14.70;99.90;;;;;;5137646;27;39396;-76
2021/10/30 11:46:50;;;;;;;5.70;4.32;;;14.70;99.90;;;;;;5134921;27;38061;-76
2021/10/30 11:49:26;;;;;;;6.20;4.47;;;14.70;99.90;;;;;;5136811;27;39711;-76
2021/10/30 11:52:04;;;;;;;5.28;4.60;;;14.70;99.90;;;;;;5150896;27;39680;-76
2021/10/30 11:54:31;;;;;;;6.57;4.97;;;14.70;99.90;;;;;;5145752;27;47198;-77
2021/10/30 11:57:02;;;;;;;5.72;4.18;;;14.70;99.90;;;;;;5132519;27;37359;-77
2021/10/30 11:59:28;;;;;;;4.80;4.05;;;14.70;99.90;;;;;;5127534;27;49967;-77
2021/10/30 12:01:54;;;;;;;10.25;4.72;;;14.70;99.90;;;;;;5136300;27;39346;-77
2021/10/30 12:04:24;;;;;;;6.03;4.40;;;14.80;99.90;;;;;;5137163;27;37808;-76
2021/10/30 12:06:56;;;;;;;6.55;4.40;;;14.70;99.90;;;;;;5134452;27;37139;-76
2021/10/30 12:09:34;;;;;;;6.03;5.07;;;14.80;99.90;;;;;;5134507;27;39848;-76
2021/10/30 12:12:19;;;;;;;5.80;4.85;;;14.80;99.90;;;;;;5131626;27;37593;-76
2021/10/30 12:14:48;;;;;;;5.45;4.95;;;14.70;99.90;;;;;;5124979;27;48675;-76
2021/10/30 12:17:19;;;;;;;6.00;5.28;;;14.70;99.90;;;;;;5133979;27;37133;-76
2021/10/30 12:20:00;;;;;;;6.28;5.00;;;14.70;99.90;;;;;;5134204;27;39499;-79
2021/10/30 12:22:30;;;;;;;5.80;5.00;;;14.70;99.90;;;;;;5134154;27;46553;-76
2021/10/30 12:25:08;;;;;;;6.15;5.20;;;14.70;99.90;;;;;;5115930;27;36554;-76
2021/10/30 12:27:35;;;;;;;7.63;5.38;;;14.70;99.90;;;;;;5124316;27;47206;-76
2021/10/30 12:30:11;;;;;;;6.97;5.47;;;14.70;99.90;;;;;;5119195;27;39715;-79
2021/10/30 12:32:41;;;;;;;5.78;5.05;;;14.80;99.90;;;;;;5125144;27;47658;-77
2021/10/30 12:35:13;;;;;;;6.97;5.10;;;14.80;99.90;;;;;;5144986;27;38265;-76
2021/10/30 12:37:39;;;;;;;6.68;5.60;;;14.80;99.90;;;;;;5131053;27;37864;-76
2021/10/30 12:40:07;;;;;;;7.22;5.82;;;14.80;99.90;;;;;;5130031;27;38716;-76
2021/10/30 12:42:36;;;;;;;6.70;5.53;;;14.80;99.90;;;;;;5131484;27;38278;-77